createdAt,value
2019-01-02T00:14:28.236Z,3.20
2019-01-02T00:23:05.199Z,3.90
2019-01-02T00:25:42.107Z,2.92
2019-01-02T00:28:53.637Z,3.65
2019-01-02T00:31:22.799Z,2.55
2019-01-02T00:33:51.845Z,4.15
2019-01-02T00:36:22.859Z,2.70
2019-01-02T00:38:51.789Z,3.08
2019-01-02T00:41:20.690Z,2.52
2019-01-02T00:43:49.510Z,2.67
2019-01-02T00:46:18.343Z,3.27
2019-01-02T00:48:47.498Z,3.12
2019-01-02T00:51:16.425Z,4.17
2019-01-02T00:55:53.175Z,2.87
2019-01-02T00:58:04.518Z,3.70
2019-01-02T01:03:19.763Z,2.70
2019-01-02T01:09:21.636Z,2.65
2019-01-02T01:11:52.896Z,3.20
2019-01-02T01:28:02.284Z,4.08
2019-01-02T01:34:38.281Z,3.12
2019-01-02T01:49:10.021Z,2.98
2019-01-02T01:51:53.722Z,3.55
2019-01-02T01:54:25.222Z,3.95
2019-01-02T02:00:14.192Z,5.17
2019-01-02T02:02:46.393Z,3.08
2019-01-02T02:05:15.280Z,3.42
2019-01-02T02:07:44.201Z,3.55
2019-01-02T02:10:37.626Z,3.55
2019-01-02T02:13:06.877Z,3.25
2019-01-02T02:15:37.116Z,3.67
2019-01-02T02:18:08.322Z,4.00
2019-01-02T02:20:43.660Z,2.70
2019-01-02T02:23:12.605Z,2.60
2019-01-02T02:25:47.932Z,2.95
2019-01-02T02:28:41.265Z,4.67
2019-01-02T02:36:58.480Z,3.77
2019-01-02T02:39:27.777Z,3.85
2019-01-02T02:41:58.370Z,3.17
2019-01-02T02:44:39.672Z,4.17
2019-01-02T02:47:10.431Z,3.55
2019-01-02T02:49:59.213Z,4.33
2019-01-02T02:52:29.770Z,2.33
2019-01-02T02:55:14.236Z,3.15
2019-01-02T02:57:42.916Z,2.40
2019-01-02T03:00:13.670Z,3.83
2019-01-02T03:02:42.689Z,2.55
2019-01-02T03:05:14.859Z,3.70
2019-01-02T03:07:45.662Z,3.80
2019-01-02T03:10:16.989Z,4.20
2019-01-02T03:12:48.888Z,3.55
2019-01-02T03:15:19.680Z,5.22
2019-01-02T03:17:48.600Z,3.90
2019-01-02T03:20:17.556Z,3.70
2019-01-02T03:22:46.644Z,3.98
2019-01-02T03:25:15.998Z,2.98
2019-01-02T03:27:47.435Z,3.90
2019-01-02T03:30:18.656Z,3.90
2019-01-02T03:32:49.631Z,3.98
2019-01-02T03:35:20.340Z,3.90
2019-01-02T03:37:49.035Z,3.52
2019-01-02T03:40:18.055Z,2.40
2019-01-02T03:42:56.711Z,3.33
2019-01-02T03:48:10.764Z,3.83
2019-01-02T03:50:39.951Z,3.30
2019-01-02T03:53:08.841Z,4.50
2019-01-02T03:55:37.819Z,3.50
2019-01-02T03:58:06.678Z,3.80
2019-01-02T04:00:38.955Z,3.10
2019-01-02T04:12:10.160Z,4.22
2019-01-02T04:14:59.370Z,2.33
2019-01-02T04:17:28.694Z,2.77
2019-01-02T04:20:01.100Z,3.02
2019-01-02T04:22:49.119Z,2.40
2019-01-02T04:25:18.440Z,2.67
2019-01-02T04:27:47.457Z,3.70
2019-01-02T04:30:16.471Z,3.62
2019-01-02T04:32:45.509Z,3.83
2019-01-02T04:35:14.485Z,3.33
2019-01-02T04:38:02.453Z,4.08
2019-01-02T04:40:31.351Z,3.75
2019-01-02T04:43:19.358Z,2.90
2019-01-02T04:45:48.251Z,3.27
2019-01-02T04:48:24.352Z,3.00
2019-01-02T04:53:49.721Z,2.98
2019-01-02T04:56:19.137Z,2.80
2019-01-02T05:02:01.845Z,3.95
2019-01-02T05:07:20.281Z,2.72
2019-01-02T05:09:49.279Z,3.62
2019-01-02T05:18:43.314Z,3.60
2019-01-02T05:21:12.746Z,3.65
2019-01-02T05:33:20.722Z,3.10
2019-01-02T05:35:49.936Z,4.60
2019-01-02T05:50:02.170Z,3.10
2019-01-02T05:52:31.386Z,3.17
2019-01-02T06:00:54.187Z,4.08
2019-01-02T06:03:23.050Z,4.37
2019-01-02T06:08:42.209Z,3.40
2019-01-02T06:11:11.199Z,4.35
2019-01-02T06:13:40.166Z,4.33
2019-01-02T06:16:09.035Z,5.28
2019-01-02T06:21:21.903Z,5.20
2019-01-02T06:23:51.209Z,3.80
2019-01-02T06:29:17.740Z,3.42
2019-01-02T06:31:46.697Z,4.62
2019-01-02T06:34:16.414Z,4.28
2019-01-02T06:36:45.257Z,2.80
2019-01-02T06:42:22.221Z,3.27
2019-01-02T06:44:37.129Z,5.92
2019-01-02T06:47:06.177Z,3.83
2019-01-02T06:49:54.152Z,4.67
2019-01-02T06:52:37.993Z,3.80
2019-01-02T06:58:11.478Z,3.85
2019-01-02T07:00:42.171Z,5.85
2019-01-02T07:03:16.582Z,3.15
2019-01-02T07:06:04.551Z,3.70
2019-01-02T07:08:33.468Z,4.92
2019-01-02T07:11:02.447Z,4.78
2019-01-02T08:48:18.102Z,4.40
2019-01-02T08:51:25.385Z,5.22
2019-01-02T08:54:32.603Z,3.75
2019-01-02T08:57:39.736Z,4.30
2019-01-02T09:10:08.630Z,2.83
2019-01-02T09:23:16.729Z,3.87
2019-01-02T09:26:23.867Z,3.55
2019-01-02T09:29:31.000Z,3.83
2019-01-02T09:32:32.249Z,4.17
2019-01-02T09:35:39.393Z,3.92
2019-01-02T09:38:46.536Z,4.72
2019-01-02T09:41:56.487Z,4.78
2019-01-02T09:45:01.030Z,3.67
2019-01-02T09:47:54.085Z,3.70
2019-01-02T09:51:05.164Z,4.25
2019-01-02T09:54:09.705Z,3.67
2019-01-02T09:57:10.313Z,3.70
2019-01-02T10:00:03.571Z,4.37
2019-01-02T10:03:12.220Z,4.00
2019-01-02T10:06:24.200Z,6.83
2019-01-02T10:09:16.799Z,4.62
2019-01-02T10:12:14.138Z,3.92
2019-01-02T10:15:21.580Z,3.80
2019-01-02T10:18:37.423Z,3.45
2019-01-02T10:21:26.385Z,3.60
2019-01-02T10:24:21.529Z,3.12
2019-01-02T10:27:46.348Z,3.10
2019-01-02T10:31:07.405Z,4.05
2019-01-02T10:34:11.859Z,4.67
2019-01-02T10:37:30.871Z,4.25
2019-01-02T10:40:41.300Z,3.25
2019-01-02T10:43:45.024Z,3.30
2019-01-02T10:46:51.662Z,3.85
2019-01-02T10:50:10.701Z,4.03
2019-01-02T10:53:35.805Z,2.80
2019-01-02T10:56:30.141Z,3.12
2019-01-02T10:59:34.632Z,2.12
2019-01-02T11:02:41.915Z,2.40
2019-01-02T11:12:45.071Z,2.55
2019-01-02T11:24:46.283Z,2.65
2019-01-02T11:45:37.890Z,2.80
2019-01-02T13:27:57.421Z,1.87
2019-01-02T13:30:57.761Z,1.50
2019-01-02T13:33:43.074Z,1.47
2019-01-02T13:40:16.941Z,1.10
2019-01-02T13:46:25.724Z,1.57
2019-01-02T13:49:14.742Z,1.27
2019-01-02T13:51:49.252Z,1.60
2019-01-02T13:54:17.946Z,1.20
2019-01-02T13:56:48.905Z,1.30
2019-01-02T13:59:17.544Z,1.15
2019-01-02T14:02:04.518Z,1.55
2019-01-02T14:04:33.785Z,1.17
2019-01-02T14:07:02.450Z,1.40
2019-01-02T14:09:31.167Z,1.87
2019-01-02T14:11:59.940Z,1.45
2019-01-02T14:14:28.594Z,1.20
2019-01-02T14:17:25.080Z,1.10
2019-01-02T14:20:07.611Z,1.92
2019-01-02T14:22:36.257Z,2.30
2019-01-02T14:25:05.045Z,1.07
2019-01-02T14:27:33.837Z,1.57
2019-01-02T14:30:02.511Z,2.00
2019-01-02T14:32:31.158Z,2.22
2019-01-02T14:34:59.829Z,1.85
2019-01-02T14:37:28.563Z,3.17
2019-01-02T14:39:57.258Z,1.40
2019-01-02T14:42:25.873Z,2.47
2019-01-02T14:44:54.504Z,1.67
2019-01-02T14:47:24.464Z,1.00
2019-01-02T14:50:50.007Z,1.60
2019-01-02T14:54:53.912Z,2.35
2019-01-02T15:09:11.286Z,1.27
2019-01-02T15:12:24.424Z,1.10
2019-01-02T15:14:50.493Z,0.90
2019-01-02T16:16:36.476Z,3.17
2019-01-02T16:19:06.168Z,1.40
2019-01-02T16:21:35.733Z,1.30
2019-01-02T16:24:04.347Z,1.70
2019-01-02T16:26:33.003Z,1.62
2019-01-02T16:29:01.708Z,1.00
2019-01-02T16:31:30.363Z,1.20
2019-01-02T16:33:59.093Z,1.25
2019-01-02T16:36:27.794Z,1.70
2019-01-02T16:38:56.532Z,1.50
2019-01-02T16:41:25.242Z,1.72
2019-01-02T16:43:54.062Z,2.72
2019-01-02T16:46:22.783Z,2.70
2019-01-02T16:48:51.542Z,1.12
2019-01-02T16:51:20.237Z,1.37
2019-01-02T16:53:48.953Z,1.40
2019-01-02T16:56:17.928Z,2.60
2019-01-02T16:58:46.734Z,2.10
2019-01-02T17:01:16.459Z,5.03
2019-01-02T17:03:46.573Z,2.55
2019-01-02T17:06:16.015Z,1.72
2019-01-02T17:08:45.137Z,1.47
2019-01-02T17:11:13.841Z,2.42
2019-01-02T17:13:44.891Z,1.22
2019-01-02T17:16:13.557Z,1.07
2019-01-02T17:18:42.218Z,0.93
2019-01-02T17:21:10.991Z,0.95
2019-01-02T17:23:39.980Z,1.52
2019-01-02T17:26:10.003Z,1.40
2019-01-02T17:28:38.871Z,1.45
2019-01-02T17:31:07.569Z,1.15
2019-01-02T17:33:36.286Z,1.00
2019-01-02T17:36:05.597Z,1.10
2019-01-02T17:38:34.448Z,1.40
2019-01-02T17:41:03.077Z,1.40
2019-01-02T17:43:32.704Z,1.05
2019-01-02T17:46:01.808Z,1.30
2019-01-02T17:48:30.628Z,1.82
2019-01-02T17:50:59.768Z,0.90
2019-01-02T17:53:28.853Z,1.30
2019-01-02T17:55:57.510Z,1.20
2019-01-02T17:58:26.295Z,1.15
2019-01-02T18:01:23.985Z,1.10
2019-01-02T18:03:55.236Z,1.42
2019-01-02T18:06:49.542Z,1.55
2019-01-02T18:09:18.237Z,1.25
2019-01-02T18:11:47.198Z,1.60
2019-01-02T18:14:15.975Z,1.12
2019-01-02T18:17:14.856Z,1.50
2019-01-02T18:20:05.470Z,1.15
2019-01-02T18:22:55.345Z,1.32
2019-01-02T18:28:25.202Z,1.70
2019-01-02T18:31:22.185Z,1.17
2019-01-02T18:34:06.696Z,1.70
2019-01-02T18:36:49.740Z,2.00
2019-01-02T18:39:19.462Z,1.65
2019-01-02T18:41:48.490Z,1.75
2019-01-02T18:44:20.528Z,1.77
2019-01-02T18:46:48.059Z,1.50
2019-01-02T18:49:17.539Z,3.98
2019-01-02T18:51:46.403Z,3.12
2019-01-02T18:54:16.966Z,2.00
2019-01-02T18:56:45.999Z,2.20
2019-01-02T18:59:14.900Z,1.98
2019-01-02T19:04:35.046Z,2.90
2019-01-02T19:07:09.488Z,1.92
2019-01-02T19:09:38.438Z,1.75
2019-01-02T19:12:07.469Z,2.30
2019-01-02T19:14:37.101Z,1.25
2019-01-02T19:17:07.990Z,1.70
2019-01-02T19:20:10.894Z,1.85
2019-01-02T19:40:00.783Z,3.05
2019-01-02T20:12:02.775Z,4.53
2019-01-02T20:25:47.133Z,1.75
2019-01-02T20:28:48.270Z,1.87
2019-01-02T20:35:05.851Z,2.05
2019-01-02T20:38:07.879Z,1.20
2019-01-02T21:20:40.321Z,0.93
2019-01-02T21:54:45.523Z,1.40
2019-01-02T22:42:20.507Z,1.30
2019-01-02T23:41:08.629Z,2.83
2019-01-02T23:44:05.304Z,2.92
2019-01-02T23:46:52.224Z,2.15
2019-01-02T23:49:45.730Z,2.58
2019-01-02T23:52:32.052Z,2.80
2019-01-02T23:55:28.716Z,1.80
2019-01-02T23:58:35.511Z,1.70
